Time;durP1;ratioP1;P1;durP2;ratioP2;P2;SDS_P1;SDS_P2;PMS_P1;PMS_P2;Temp;Humidity;BMP_temperature;BMP_pressure;BME280_temperature;BME280_humidity;BME280_pressure;Samples;Min_cycle;Max_cycle;Signal;HPM_P1;HPM_P2
2022/10/04 00:01:13;;;;;;;11.00;4.77;;;10.00;99.90;;;;;;5033805;28;20206;-54
2022/10/04 00:03:43;;;;;;;8.83;4.13;;;10.00;99.90;;;;;;5033746;28;20210;-57
2022/10/04 00:06:16;;;;;;;9.30;4.20;;;10.00;99.90;;;;;;5033663;28;20277;-56
2022/10/04 00:08:47;;;;;;;8.93;4.30;;;10.00;99.90;;;;;;5033531;28;20229;-56
2022/10/04 00:11:19;;;;;;;11.67;4.30;;;10.00;99.90;;;;;;5034106;28;20202;-56
2022/10/04 00:13:52;;;;;;;10.13;4.47;;;10.00;99.90;;;;;;5034231;28;20256;-57
2022/10/04 00:16:23;;;;;;;8.70;3.93;;;10.00;99.90;;;;;;5033503;28;20340;-57
2022/10/04 00:19:02;;;;;;;9.07;3.90;;;10.00;99.90;;;;;;5033211;28;20234;-55
2022/10/04 00:22:02;;;;;;;8.93;4.37;;;10.10;99.90;;;;;;5033470;28;20213;-54
2022/10/04 00:24:31;;;;;;;6.57;4.60;;;10.20;99.90;;;;;;5033142;28;20217;-55
2022/10/04 00:27:20;;;;;;;11.23;4.30;;;10.20;99.90;;;;;;5033003;28;20673;-56
2022/10/04 00:30:16;;;;;;;7.97;5.00;;;10.30;99.90;;;;;;5033206;28;20214;-56
2022/10/04 00:33:01;;;;;;;7.50;4.57;;;10.30;99.90;;;;;;5033258;28;20451;-56
2022/10/04 00:35:50;;;;;;;10.77;5.23;;;10.40;99.90;;;;;;5033094;28;20202;-56
2022/10/04 00:38:24;;;;;;;10.07;4.70;;;10.40;99.90;;;;;;5033001;28;20262;-53
2022/10/04 00:40:56;;;;;;;8.80;5.00;;;10.50;99.90;;;;;;5033189;28;20565;-53
2022/10/04 00:43:28;;;;;;;7.33;4.57;;;10.50;99.90;;;;;;5032888;28;20217;-55
2022/10/04 00:46:01;;;;;;;8.53;4.30;;;10.60;99.90;;;;;;5032671;28;20293;-56
2022/10/04 00:48:36;;;;;;;9.67;4.27;;;10.50;99.90;;;;;;5032817;28;20226;-57
2022/10/04 00:51:09;;;;;;;8.03;4.60;;;10.50;99.90;;;;;;5033095;28;20193;-58
2022/10/04 00:53:53;;;;;;;10.73;4.83;;;10.50;99.90;;;;;;5032946;28;20214;-57
2022/10/04 00:56:25;;;;;;;10.50;4.80;;;10.40;99.90;;;;;;5032549;28;20202;-57
2022/10/04 00:59:34;;;;;;;17.47;5.40;;;10.40;99.90;;;;;;5032843;28;20629;-57
2022/10/04 01:02:07;;;;;;;8.37;4.77;;;10.40;99.90;;;;;;5003579;28;20206;-57
2022/10/04 01:04:40;;;;;;;15.60;4.90;;;10.40;99.90;;;;;;5032592;28;20210;-57
2022/10/04 01:07:07;;;;;;;6.80;4.60;;;10.40;99.90;;;;;;5032309;28;20202;-57
2022/10/04 01:09:40;;;;;;;10.23;4.77;;;10.30;99.90;;;;;;5032546;28;20249;-57
2022/10/04 01:12:13;;;;;;;9.57;5.23;;;10.40;99.90;;;;;;5032486;28;20209;-58
2022/10/04 01:14:50;;;;;;;6.23;4.30;;;10.30;99.90;;;;;;5032623;28;20257;-56
2022/10/04 01:17:19;;;;;;;7.57;4.27;;;10.30;99.90;;;;;;5032074;28;20609;-54
2022/10/04 01:19:54;;;;;;;8.47;4.30;;;10.30;99.90;;;;;;5032131;28;20206;-57
2022/10/04 01:22:37;;;;;;;9.07;4.63;;;10.30;99.90;;;;;;5032346;28;20301;-55
2022/10/04 01:25:04;;;;;;;8.93;4.60;;;10.20;99.90;;;;;;5032339;28;20206;-57
2022/10/04 01:27:34;;;;;;;7.20;4.40;;;10.10;99.90;;;;;;5031943;28;20374;-57
2022/10/04 01:30:04;;;;;;;8.83;5.20;;;10.10;99.90;;;;;;5031985;28;20256;-56
2022/10/04 01:32:31;;;;;;;12.47;6.13;;;10.10;99.90;;;;;;5032211;28;20299;-57
2022/10/04 01:34:58;;;;;;;13.27;5.70;;;10.10;99.90;;;;;;5031349;28;20186;-57
2022/10/04 01:37:25;;;;;;;11.27;6.07;;;10.10;99.90;;;;;;5032020;28;20299;-55
2022/10/04 01:39:54;;;;;;;11.37;5.53;;;10.10;99.90;;;;;;5032400;28;20241;-57
2022/10/04 01:42:26;;;;;;;7.57;5.70;;;10.10;99.90;;;;;;5032329;28;20206;-57
2022/10/04 01:45:00;;;;;;;12.07;5.57;;;10.10;99.90;;;;;;5031820;28;20293;-57
2022/10/04 01:47:33;;;;;;;11.53;5.60;;;10.10;99.90;;;;;;5031781;28;20229;-57
2022/10/04 01:50:04;;;;;;;9.43;5.73;;;10.10;99.90;;;;;;5032275;28;20260;-58
2022/10/04 01:52:35;;;;;;;8.67;6.03;;;10.10;99.90;;;;;;5032085;28;20201;-58
2022/10/04 01:55:07;;;;;;;12.20;6.17;;;10.10;99.90;;;;;;5031785;28;20205;-58
2022/10/04 01:57:37;;;;;;;9.10;5.80;;;10.10;99.90;;;;;;5031931;28;20234;-57
2022/10/04 02:00:09;;;;;;;12.33;5.97;;;10.10;99.90;;;;;;5031939;28;20219;-55
2022/10/04 02:02:40;;;;;;;13.70;5.90;;;10.10;99.90;;;;;;5032163;28;20194;-57
2022/10/04 02:05:10;;;;;;;13.07;6.10;;;10.10;99.90;;;;;;5031929;28;20633;-57
2022/10/04 02:07:39;;;;;;;11.67;6.73;;;10.00;99.90;;;;;;5031340;28;20284;-58
2022/10/04 02:10:11;;;;;;;9.40;5.80;;;10.00;99.90;;;;;;5031884;28;20213;-58
2022/10/04 02:12:45;;;;;;;10.57;5.53;;;10.00;99.90;;;;;;5031657;28;20202;-58
2022/10/04 02:15:13;;;;;;;11.77;6.43;;;10.00;99.90;;;;;;5031975;28;20237;-58
2022/10/04 02:17:42;;;;;;;15.93;6.47;;;10.00;99.90;;;;;;5031207;28;20720;-57
2022/10/04 02:20:13;;;;;;;12.17;6.17;;;9.90;99.90;;;;;;5031760;28;20640;-57
2022/10/04 02:22:42;;;;;;;12.23;5.60;;;9.90;99.90;;;;;;5032491;28;20210;-57
2022/10/04 02:25:11;;;;;;;8.90;5.63;;;9.90;99.90;;;;;;5031660;28;20206;-57
2022/10/04 02:27:38;;;;;;;12.47;6.33;;;9.90;99.90;;;;;;5031459;28;20741;-56
2022/10/04 02:30:07;;;;;;;16.30;6.63;;;9.90;99.90;;;;;;5031585;28;20213;-57
2022/10/04 02:35:20;;;;;;;11.57;6.13;;;9.90;99.90;;;;;;5031593;28;20260;-57
2022/10/04 02:37:49;;;;;;;10.43;5.20;;;9.90;99.90;;;;;;5031145;28;20287;-57
2022/10/04 02:40:21;;;;;;;8.10;5.57;;;10.00;99.90;;;;;;5031407;28;20233;-56
2022/10/04 02:42:54;;;;;;;11.27;5.93;;;10.00;99.90;;;;;;5031429;28;20238;-57
2022/10/04 02:45:24;;;;;;;10.43;5.67;;;10.00;99.90;;;;;;5032098;28;20693;-52
2022/10/04 02:47:57;;;;;;;8.80;5.87;;;10.00;99.90;;;;;;5034869;28;20237;-55
2022/10/04 02:50:30;;;;;;;14.47;5.87;;;10.00;99.90;;;;;;5035194;28;20267;-50
2022/10/04 02:53:03;;;;;;;14.37;5.97;;;9.90;99.90;;;;;;5035104;28;20214;-53
2022/10/04 02:55:32;;;;;;;8.77;5.17;;;9.90;99.90;;;;;;5034830;28;20210;-54
2022/10/04 02:58:00;;;;;;;13.97;6.30;;;10.00;99.90;;;;;;5035138;28;20230;-57
2022/10/04 03:00:29;;;;;;;7.77;5.93;;;10.00;99.90;;;;;;5035294;28;20639;-57
2022/10/04 03:03:16;;;;;;;12.53;5.10;;;10.00;99.90;;;;;;5035044;28;20205;-57
2022/10/04 03:05:45;;;;;;;11.57;4.67;;;10.00;99.90;;;;;;5034905;28;20222;-57
2022/10/04 03:08:13;;;;;;;11.93;5.83;;;10.00;99.90;;;;;;5034848;28;21024;-57
2022/10/04 03:10:43;;;;;;;11.93;5.17;;;10.10;99.90;;;;;;5035259;28;20260;-58
2022/10/04 03:13:10;;;;;;;14.10;4.97;;;10.10;99.90;;;;;;5034872;28;20209;-57
2022/10/04 03:15:38;;;;;;;11.13;5.07;;;10.10;99.90;;;;;;5034994;28;20344;-57
2022/10/04 03:18:05;;;;;;;10.47;4.80;;;10.10;99.90;;;;;;5034234;28;20759;-57
2022/10/04 03:20:36;;;;;;;8.40;4.60;;;10.00;99.90;;;;;;5034767;28;20210;-57
2022/10/04 03:23:04;;;;;;;7.63;4.83;;;10.00;99.90;;;;;;5034978;28;20213;-52
2022/10/04 03:25:41;;;;;;;8.77;4.83;;;10.00;99.90;;;;;;5035005;28;20260;-58
2022/10/04 03:28:09;;;;;;;11.17;5.33;;;10.00;99.90;;;;;;5034901;28;20238;-58
2022/10/04 03:30:36;;;;;;;7.50;4.63;;;10.00;99.90;;;;;;5034669;28;20267;-57
2022/10/04 03:33:03;;;;;;;8.93;5.57;;;10.00;99.90;;;;;;5034025;28;20256;-57
2022/10/04 03:35:34;;;;;;;9.60;5.30;;;10.00;99.90;;;;;;5034461;28;20210;-57
2022/10/04 03:38:05;;;;;;;8.53;5.00;;;9.90;99.90;;;;;;5033947;28;20234;-55
2022/10/04 03:40:33;;;;;;;10.93;5.23;;;9.90;99.90;;;;;;5034304;28;20268;-58
2022/10/04 03:43:02;;;;;;;7.37;5.87;;;9.90;99.90;;;;;;5034043;28;20210;-57
2022/10/04 03:45:31;;;;;;;9.47;5.63;;;9.90;99.90;;;;;;5034045;28;20210;-56
2022/10/04 03:48:04;;;;;;;11.80;5.77;;;10.00;99.90;;;;;;5033776;28;20233;-57
2022/10/04 03:50:35;;;;;;;12.40;5.50;;;9.90;99.90;;;;;;5034167;28;20620;-57
2022/10/04 03:53:07;;;;;;;10.60;7.67;;;9.90;99.90;;;;;;5033762;28;20211;-58
2022/10/04 03:55:37;;;;;;;7.27;5.17;;;9.90;99.90;;;;;;5033895;28;20217;-57
2022/10/04 03:58:05;;;;;;;16.50;8.03;;;9.80;99.90;;;;;;5032761;28;20226;-58
2022/10/04 04:00:38;;;;;;;8.30;5.27;;;9.70;99.90;;;;;;5033812;28;20296;-57
2022/10/04 04:03:07;;;;;;;8.80;5.60;;;9.70;99.90;;;;;;5033958;28;20191;-55
2022/10/04 04:05:41;;;;;;;14.40;5.90;;;9.70;99.90;;;;;;5033871;28;20206;-58
2022/10/04 04:08:18;;;;;;;11.93;5.47;;;9.60;99.90;;;;;;5033394;28;20230;-57
2022/10/04 04:10:49;;;;;;;8.43;5.30;;;9.60;99.90;;;;;;5033774;28;20669;-56
2022/10/04 04:13:24;;;;;;;9.57;5.97;;;9.50;99.90;;;;;;5033499;28;20209;-58
2022/10/04 04:15:55;;;;;;;12.27;5.40;;;9.50;99.90;;;;;;5033514;28;20351;-56
2022/10/04 04:18:23;;;;;;;8.37;5.37;;;9.50;99.90;;;;;;5033314;28;20233;-58
2022/10/04 04:20:55;;;;;;;12.67;5.83;;;9.50;99.90;;;;;;5033241;28;20210;-56
2022/10/04 04:23:26;;;;;;;12.50;6.50;;;9.40;99.90;;;;;;5034487;28;20728;-58
2022/10/04 04:25:55;;;;;;;11.20;5.90;;;9.40;99.90;;;;;;5033380;28;20210;-57
2022/10/04 04:28:27;;;;;;;9.50;5.80;;;9.40;99.90;;;;;;5032969;28;20291;-55
2022/10/04 04:31:00;;;;;;;18.43;6.67;;;9.40;99.90;;;;;;5033336;28;20208;-57
2022/10/04 04:33:29;;;;;;;12.10;6.63;;;9.40;99.90;;;;;;5032925;28;20731;-56
2022/10/04 04:36:04;;;;;;;9.60;5.43;;;9.40;99.90;;;;;;5033242;28;20224;-56
2022/10/04 04:38:30;;;;;;;11.10;6.13;;;9.40;99.90;;;;;;5033006;28;20230;-54
2022/10/04 04:41:07;;;;;;;9.40;5.70;;;9.40;99.90;;;;;;5032981;28;20618;-54
2022/10/04 04:43:35;;;;;;;11.43;5.90;;;9.40;99.90;;;;;;5032861;28;20252;-57
2022/10/04 04:46:08;;;;;;;9.93;5.53;;;9.40;99.90;;;;;;5032508;28;20637;-56
2022/10/04 04:48:36;;;;;;;10.33;5.30;;;9.40;99.90;;;;;;5032861;28;20238;-56
2022/10/04 04:51:04;;;;;;;9.57;5.53;;;9.40;99.90;;;;;;5033019;28;20782;-57
2022/10/04 04:53:30;;;;;;;8.77;6.17;;;9.40;99.90;;;;;;5032705;28;20206;-53
2022/10/04 04:56:00;;;;;;;12.17;5.97;;;9.40;99.90;;;;;;5032525;28;20280;-57
2022/10/04 04:58:31;;;;;;;10.70;6.00;;;9.40;99.90;;;;;;5032409;28;20228;-58
2022/10/04 05:01:01;;;;;;;11.53;5.40;;;9.50;99.90;;;;;;5032801;28;20202;-55
2022/10/04 05:03:30;;;;;;;8.23;5.83;;;9.50;99.90;;;;;;5032566;28;20210;-55
2022/10/04 05:05:59;;;;;;;9.20;5.33;;;9.50;99.90;;;;;;5032416;28;20249;-56
2022/10/04 05:08:27;;;;;;;9.23;6.20;;;9.50;99.90;;;;;;5032459;28;20769;-56
2022/10/04 05:11:04;;;;;;;8.90;5.77;;;9.50;99.90;;;;;;5032270;28;20216;-58
2022/10/04 05:13:38;;;;;;;12.20;6.20;;;9.50;99.90;;;;;;5032521;28;20219;-58
2022/10/04 05:16:10;;;;;;;13.90;6.00;;;9.50;99.90;;;;;;5032445;28;20212;-58
2022/10/04 05:18:38;;;;;;;8.73;5.87;;;9.40;99.90;;;;;;5032398;28;20241;-58
2022/10/04 05:21:10;;;;;;;11.07;5.97;;;9.40;99.90;;;;;;5032119;28;20206;-58
2022/10/04 05:23:38;;;;;;;12.13;6.23;;;9.40;99.90;;;;;;5032345;28;20198;-58
2022/10/04 05:26:11;;;;;;;9.57;5.67;;;9.40;99.90;;;;;;5032063;28;20233;-58
2022/10/04 05:28:37;;;;;;;14.00;6.67;;;9.40;99.90;;;;;;5032122;28;20238;-58
2022/10/04 05:31:28;;;;;;;9.93;6.23;;;9.40;99.90;;;;;;5032127;28;20622;-58
2022/10/04 05:33:58;;;;;;;11.77;5.90;;;9.40;99.90;;;;;;5031910;28;20268;-57
2022/10/04 05:36:46;;;;;;;6.77;5.00;;;9.40;99.90;;;;;;5032161;28;20251;-58
2022/10/04 05:39:22;;;;;;;10.47;5.40;;;9.40;99.90;;;;;;5032085;28;20255;-58
2022/10/04 05:41:56;;;;;;;9.90;4.73;;;9.40;99.90;;;;;;5032181;28;20216;-57
2022/10/04 05:44:28;;;;;;;10.17;5.10;;;9.40;99.90;;;;;;5031818;28;20214;-58
2022/10/04 05:46:57;;;;;;;9.63;5.13;;;9.40;99.90;;;;;;5031745;28;20230;-58
2022/10/04 05:49:27;;;;;;;10.17;5.33;;;9.40;99.90;;;;;;5031834;28;20218;-58
2022/10/04 05:51:56;;;;;;;10.40;5.30;;;9.30;99.90;;;;;;5031948;28;20280;-58
2022/10/04 05:54:26;;;;;;;10.37;5.43;;;9.30;99.90;;;;;;5031569;28;20206;-58
2022/10/04 05:57:36;;;;;;;11.33;5.73;;;9.30;99.90;;;;;;5031584;28;20300;-58
2022/10/04 06:00:14;;;;;;;11.63;5.33;;;9.30;99.90;;;;;;5031780;28;20210;-57
2022/10/04 06:03:13;;;;;;;10.13;5.07;;;9.20;99.90;;;;;;5031933;28;20677;-57
2022/10/04 06:05:50;;;;;;;7.43;5.10;;;9.20;99.90;;;;;;5031599;28;20194;-57
2022/10/04 06:08:28;;;;;;;9.10;4.80;;;9.20;99.90;;;;;;5031596;28;20236;-58
2022/10/04 06:11:14;;;;;;;9.63;4.90;;;9.20;99.90;;;;;;5031689;28;20694;-57
2022/10/04 06:14:08;;;;;;;10.90;5.27;;;9.20;99.90;;;;;;5031910;28;20347;-58
2022/10/04 06:16:55;;;;;;;9.60;5.37;;;9.20;99.90;;;;;;5001318;28;20293;-56
2022/10/04 06:19:51;;;;;;;11.20;5.37;;;9.20;99.90;;;;;;5031692;28;20226;-59
2022/10/04 06:22:20;;;;;;;8.00;5.03;;;9.20;99.90;;;;;;5035473;28;20703;-57
2022/10/04 06:24:50;;;;;;;6.93;4.90;;;9.30;99.90;;;;;;5035551;28;20213;-55
2022/10/04 06:27:23;;;;;;;10.10;5.47;;;9.30;99.90;;;;;;5035258;28;20237;-55
2022/10/04 06:29:55;;;;;;;12.83;5.53;;;9.40;99.90;;;;;;5035423;28;20209;-56
2022/10/04 06:32:40;;;;;;;8.23;4.90;;;9.40;99.90;;;;;;5035495;28;20271;-55
2022/10/04 06:35:29;;;;;;;9.50;5.87;;;9.50;99.90;;;;;;5035554;28;20221;-55
2022/10/04 06:38:16;;;;;;;10.93;4.93;;;9.50;99.90;;;;;;5035565;28;20229;-58
2022/10/04 06:41:12;;;;;;;10.07;5.40;;;9.60;99.90;;;;;;5036675;28;20193;-58
2022/10/04 06:44:04;;;;;;;10.53;5.03;;;9.60;99.90;;;;;;5005405;28;20205;-57
2022/10/04 06:46:41;;;;;;;12.20;5.23;;;9.70;99.90;;;;;;5035138;28;20195;-58
2022/10/04 06:49:33;;;;;;;9.57;5.03;;;9.70;99.90;;;;;;5035184;28;20313;-58
2022/10/04 06:52:41;;;;;;;8.23;5.10;;;9.70;99.90;;;;;;5035250;28;20630;-57
2022/10/04 06:55:33;;;;;;;12.23;5.03;;;9.80;99.90;;;;;;5034727;28;20209;-55
2022/10/04 06:58:36;;;;;;;8.63;4.83;;;9.80;99.90;;;;;;5034551;28;20223;-55
2022/10/04 07:01:06;;;;;;;9.93;4.33;;;9.90;99.90;;;;;;5026122;28;20221;-57
2022/10/04 07:03:38;;;;;;;8.17;4.40;;;9.90;99.90;;;;;;5034945;28;20687;-58
2022/10/04 07:06:10;;;;;;;9.23;4.90;;;10.00;99.90;;;;;;5034662;28;20229;-58
2022/10/04 07:08:41;;;;;;;9.53;4.83;;;10.10;99.90;;;;;;5034626;28;20238;-58
2022/10/04 07:11:16;;;;;;;9.47;4.73;;;10.10;99.90;;;;;;5034593;28;20207;-58
2022/10/04 07:13:51;;;;;;;7.07;3.83;;;10.20;99.90;;;;;;5034539;28;20665;-58
2022/10/04 07:16:37;;;;;;;9.53;4.50;;;10.20;99.90;;;;;;5034028;28;20202;-58
2022/10/04 07:19:23;;;;;;;5.63;4.07;;;10.30;99.90;;;;;;5034571;28;20276;-58
2022/10/04 07:21:56;;;;;;;11.67;4.20;;;10.30;99.90;;;;;;5034790;28;20202;-58
2022/10/04 07:24:28;;;;;;;10.30;4.77;;;10.50;99.90;;;;;;5034039;28;20214;-58
2022/10/04 07:26:56;;;;;;;10.43;4.70;;;10.50;99.90;;;;;;5034117;28;20206;-58
2022/10/04 07:29:25;;;;;;;9.93;4.43;;;10.60;99.90;;;;;;5033949;28;20308;-58
2022/10/04 07:32:02;;;;;;;6.97;4.20;;;10.70;99.90;;;;;;5033203;28;20555;-58
2022/10/04 07:34:31;;;;;;;9.93;4.40;;;10.70;99.90;;;;;;5034064;28;20206;-57
2022/10/04 07:37:02;;;;;;;9.57;4.93;;;10.80;99.90;;;;;;5033900;28;20210;-56
2022/10/04 07:39:33;;;;;;;8.60;4.37;;;10.90;99.90;;;;;;5033968;28;20261;-58
2022/10/04 07:42:18;;;;;;;10.33;4.40;;;11.10;99.90;;;;;;5034193;28;20675;-58
2022/10/04 07:44:55;;;;;;;6.93;4.73;;;11.20;99.90;;;;;;5034174;28;20214;-58
2022/10/04 07:47:25;;;;;;;11.00;5.10;;;11.30;99.90;;;;;;5034109;28;20245;-58
2022/10/04 07:49:52;;;;;;;10.73;4.60;;;11.40;99.90;;;;;;5034148;28;20244;-58
2022/10/04 07:52:43;;;;;;;9.23;4.53;;;11.40;99.90;;;;;;5033893;28;20242;-58
2022/10/04 07:55:20;;;;;;;8.87;4.90;;;11.40;99.90;;;;;;5033648;28;20204;-58
2022/10/04 07:57:57;;;;;;;7.63;4.40;;;11.50;99.90;;;;;;5033764;28;20233;-58
2022/10/04 08:00:28;;;;;;;9.13;5.00;;;11.50;99.90;;;;;;5034231;28;20210;-58
2022/10/04 08:03:19;;;;;;;11.13;5.07;;;11.60;99.90;;;;;;5033860;28;20257;-56
2022/10/04 08:05:50;;;;;;;10.77;4.80;;;11.70;99.90;;;;;;5033432;28;20206;-58
2022/10/04 08:08:29;;;;;;;11.20;4.80;;;11.70;99.90;;;;;;5033527;28;20356;-58
2022/10/04 08:11:14;;;;;;;9.67;5.10;;;11.80;99.90;;;;;;5033457;28;20266;-58
2022/10/04 08:13:51;;;;;;;6.47;4.50;;;11.80;99.90;;;;;;5033528;28;20210;-58
2022/10/04 08:16:32;;;;;;;6.33;4.13;;;11.90;99.90;;;;;;5033179;28;20195;-58
2022/10/04 08:19:10;;;;;;;8.10;4.77;;;11.90;99.90;;;;;;5033604;28;20228;-57
2022/10/04 08:21:47;;;;;;;9.87;5.33;;;12.00;99.90;;;;;;5033248;28;20689;-58
2022/10/04 08:24:21;;;;;;;8.63;5.07;;;12.10;99.90;;;;;;5033818;28;20213;-58
2022/10/04 08:27:15;;;;;;;11.07;4.73;;;12.20;99.90;;;;;;5033174;28;20288;-58
2022/10/04 08:29:56;;;;;;;8.10;4.97;;;12.30;99.90;;;;;;5030658;28;20209;-58
2022/10/04 08:32:31;;;;;;;10.33;4.87;;;12.30;99.90;;;;;;5033497;28;20217;-55
2022/10/04 08:35:15;;;;;;;16.83;4.77;;;12.40;99.90;;;;;;5032632;28;20210;-58
2022/10/04 08:37:52;;;;;;;8.07;4.90;;;12.40;99.90;;;;;;5032676;28;20719;-58
2022/10/04 08:40:56;;;;;;;10.43;5.00;;;12.50;99.90;;;;;;5032667;28;20206;-57
2022/10/04 08:43:48;;;;;;;8.90;4.63;;;12.60;99.90;;;;;;5032890;28;20193;-56
2022/10/04 08:46:58;;;;;;;13.73;5.17;;;12.70;99.90;;;;;;5032623;28;20206;-58
2022/10/04 08:49:57;;;;;;;9.03;4.73;;;12.90;99.90;;;;;;5004099;28;20313;-56
2022/10/04 08:52:51;;;;;;;9.17;4.47;;;13.00;99.90;;;;;;5032656;28;20277;-58
2022/10/04 08:55:44;;;;;;;8.27;4.57;;;13.10;99.90;;;;;;5032526;28;20620;-58
2022/10/04 08:58:43;;;;;;;9.23;4.53;;;13.20;99.90;;;;;;5032373;28;20748;-58
2022/10/04 09:01:31;;;;;;;12.80;4.90;;;13.30;99.90;;;;;;5032604;28;20648;-50
2022/10/04 09:04:43;;;;;;;6.70;4.27;;;13.60;99.90;;;;;;5032626;28;20206;-51
2022/10/04 09:07:33;;;;;;;9.63;4.43;;;13.60;99.90;;;;;;4970892;28;20212;-58
2022/10/04 09:10:35;;;;;;;6.90;4.53;;;13.70;99.90;;;;;;5027759;28;20557;-56
2022/10/04 09:13:26;;;;;;;8.93;4.57;;;13.80;99.90;;;;;;5032306;28;20297;-55
2022/10/04 09:15:55;;;;;;;6.60;4.40;;;13.80;99.90;;;;;;5032274;28;20293;-55
2022/10/04 09:18:49;;;;;;;11.70;4.33;;;14.00;94.60;;;;;;5032249;28;20223;-50
2022/10/04 09:21:35;;;;;;;8.77;4.33;;;14.10;94.10;;;;;;5032308;28;20669;-57
2022/10/04 09:24:32;;;;;;;7.20;4.23;;;14.00;80.70;;;;;;5032194;28;20680;-58
2022/10/04 09:27:15;;;;;;;5.53;3.70;;;14.20;92.70;;;;;;5032008;28;20206;-58
2022/10/04 09:30:03;;;;;;;6.67;4.10;;;14.10;70.30;;;;;;5032283;28;20207;-58
2022/10/04 09:33:03;;;;;;;7.57;4.00;;;14.20;79.40;;;;;;5031920;28;20210;-58
2022/10/04 09:35:58;;;;;;;9.80;4.10;;;14.30;73.40;;;;;;5032071;28;20214;-58
2022/10/04 09:39:02;;;;;;;10.70;4.07;;;14.50;77.80;;;;;;5032064;28;20227;-58
2022/10/04 09:41:40;;;;;;;9.23;4.60;;;14.50;68.20;;;;;;5031954;28;20209;-58
2022/10/04 09:44:45;;;;;;;6.77;3.40;;;14.50;67.30;;;;;;5032261;28;20263;-58
2022/10/04 09:47:30;;;;;;;6.33;3.73;;;14.70;67.40;;;;;;5031623;28;20298;-56
2022/10/04 09:50:30;;;;;;;4.27;3.10;;;14.90;47.60;;;;;;5032290;28;20210;-56
2022/10/04 09:53:10;;;;;;;8.50;3.93;;;15.00;64.70;;;;;;5033395;28;20210;-58
2022/10/04 09:55:54;;;;;;;8.70;3.77;;;14.90;63.30;;;;;;5032907;28;20406;-58
2022/10/04 09:58:59;;;;;;;7.87;3.83;;;15.10;57.30;;;;;;5031669;28;20317;-58
2022/10/04 10:01:33;;;;;;;6.23;3.67;;;15.10;33.30;;;;;;5022604;28;20202;-58
2022/10/04 10:04:38;;;;;;;6.93;3.37;;;15.30;41.10;;;;;;5031652;28;20205;-58
2022/10/04 10:07:20;;;;;;;4.97;2.90;;;15.40;52.50;;;;;;5031787;28;20209;-58
2022/10/04 10:15:58;;;;;;;9.47;3.93;;;15.80;1.00;;;;;;5032014;28;20267;-58
2022/10/04 10:18:32;;;;;;;8.13;3.47;;;16.00;1.00;;;;;;5031488;28;20280;-58
2022/10/04 10:21:13;;;;;;;6.50;2.73;;;15.90;99.90;;;;;;5031775;28;20344;-58
2022/10/04 10:24:01;;;;;;;5.73;3.00;;;15.70;99.90;;;;;;5031885;28;20602;-58
2022/10/04 10:26:44;;;;;;;6.93;3.20;;;15.50;1.00;;;;;;5031313;28;20213;-58
2022/10/04 10:29:31;;;;;;;6.13;3.60;;;15.20;99.90;;;;;;5031451;28;20225;-58
2022/10/04 10:32:19;;;;;;;5.77;2.97;;;15.30;1.00;;;;;;5031609;28;20206;-58
2022/10/04 10:35:14;;;;;;;5.80;3.43;;;15.50;99.90;;;;;;5031691;28;20213;-58
2022/10/04 10:37:57;;;;;;;5.73;3.13;;;15.80;99.90;;;;;;5018438;28;20226;-58
2022/10/04 10:40:41;;;;;;;6.50;2.90;;;16.00;99.90;;;;;;5031781;28;20186;-58
2022/10/04 10:43:45;;;;;;;6.30;2.80;;;16.20;99.90;;;;;;5031571;28;20272;-57
2022/10/04 10:46:37;;;;;;;4.77;2.77;;;16.30;1.00;;;;;;5031059;28;20252;-57
2022/10/04 10:49:22;;;;;;;4.13;2.63;;;16.20;99.90;;;;;;5031069;28;20230;-56
2022/10/04 10:52:33;;;;;;;6.23;2.83;;;16.30;99.90;;;;;;5031470;28;20210;-56
2022/10/04 10:55:30;;;;;;;3.90;2.50;;;16.40;99.90;;;;;;5031564;28;20293;-54
2022/10/04 10:58:22;;;;;;;6.57;2.70;;;16.60;99.90;;;;;;5030956;28;20227;-58
2022/10/04 11:00:56;;;;;;;4.17;2.70;;;16.70;1.00;;;;;;5031471;28;20302;-58
2022/10/04 11:03:55;;;;;;;6.03;2.43;;;16.90;99.90;;;;;;5031270;28;20584;-58
2022/10/04 11:06:56;;;;;;;5.20;2.37;;;17.10;1.00;;;;;;5031662;28;20696;-57
2022/10/04 11:09:29;;;;;;;5.67;2.40;;;17.10;1.00;;;;;;5023375;28;20230;-58
2022/10/04 11:12:40;;;;;;;4.63;2.70;;;17.20;99.90;;;;;;5034653;28;20202;-56
2022/10/04 11:15:50;;;;;;;4.83;2.03;;;17.30;1.00;;;;;;5015431;28;20210;-58
2022/10/04 11:19:05;;;;;;;3.30;2.13;;;17.20;99.90;;;;;;5034391;28;20276;-58
2022/10/04 11:22:08;;;;;;;9.07;2.80;;;17.30;1.00;;;;;;4973602;28;20212;-58
2022/10/04 11:24:55;;;;;;;6.27;2.53;;;17.30;1.00;;;;;;5034401;28;20205;-58
2022/10/04 11:27:32;;;;;;;4.93;2.60;;;17.30;99.90;;;;;;5033859;28;20241;-58
2022/10/04 11:30:09;;;;;;;5.43;2.43;;;17.10;99.90;;;;;;5034263;28;20700;-57
2022/10/04 11:33:13;;;;;;;4.23;2.03;;;17.20;99.90;;;;;;5034496;28;20272;-58
2022/10/04 11:36:01;;;;;;;6.07;2.70;;;17.30;99.90;;;;;;5034256;28;20236;-58
2022/10/04 11:39:01;;;;;;;5.03;2.23;;;17.40;43.40;;;;;;5034089;28;20272;-58
2022/10/04 11:41:41;;;;;;;4.40;2.50;;;17.60;99.90;;;;;;5030697;28;20297;-58
2022/10/04 11:44:46;;;;;;;6.10;2.40;;;17.50;1.00;;;;;;5034288;28;20214;-58
2022/10/04 11:47:28;;;;;;;7.53;2.50;;;17.60;1.00;;;;;;5033557;28;20756;-58
2022/10/04 11:50:08;;;;;;;7.20;2.30;;;17.70;1.00;;;;;;5031802;28;20276;-59
2022/10/04 11:53:07;;;;;;;6.73;2.40;;;17.70;99.90;;;;;;5032727;28;20206;-59
2022/10/04 11:55:53;;;;;;;3.10;2.07;;;17.70;1.00;;;;;;5033747;28;20206;-59
2022/10/04 11:58:31;;;;;;;4.70;2.20;;;17.80;99.90;;;;;;5032504;28;20248;-62
2022/10/04 12:01:49;;;;;;;4.53;2.20;;;17.80;99.90;;;;;;5033777;28;20210;-61
2022/10/04 12:04:45;;;;;;;5.47;2.60;;;17.80;1.00;;;;;;4941291;29;20209;-61
2022/10/04 12:07:33;;;;;;;7.03;1.93;;;18.10;1.00;;;;;;5030185;28;20214;-62
2022/10/04 12:10:13;;;;;;;3.40;2.30;;;18.00;99.90;;;;;;5033327;28;20226;-61
2022/10/04 12:13:05;;;;;;;3.00;2.07;;;18.00;99.90;;;;;;5033780;28;20624;-62
2022/10/04 12:15:48;;;;;;;2.53;2.10;;;17.90;99.90;;;;;;5027013;28;20575;-62
2022/10/04 12:18:43;;;;;;;7.17;2.63;;;17.90;99.90;;;;;;5028478;28;20284;-62
2022/10/04 12:21:22;;;;;;;4.77;2.60;;;17.90;99.90;;;;;;5032472;28;20210;-62
2022/10/04 12:24:10;;;;;;;4.77;2.50;;;18.00;99.90;;;;;;5032895;28;20635;-63
2022/10/04 12:27:12;;;;;;;4.23;2.50;;;18.10;99.90;;;;;;5030211;28;20212;-62
2022/10/04 12:30:14;;;;;;;4.03;2.03;;;18.20;99.90;;;;;;5032816;28;20292;-65
2022/10/04 12:32:54;;;;;;;4.10;2.10;;;18.20;99.90;;;;;;5029124;28;20788;-63
2022/10/04 12:35:30;;;;;;;5.23;2.20;;;18.40;99.90;;;;;;5032599;28;20210;-60
2022/10/04 12:38:31;;;;;;;3.83;1.90;;;18.50;99.90;;;;;;5031527;28;20234;-61
2022/10/04 12:41:10;;;;;;;3.37;2.00;;;18.50;99.90;;;;;;5032313;28;20217;-61
2022/10/04 12:43:49;;;;;;;3.70;2.10;;;18.50;99.90;;;;;;5032049;28;20263;-62
2022/10/04 12:46:25;;;;;;;3.73;2.30;;;18.60;99.90;;;;;;5031649;28;20716;-60
2022/10/04 12:49:21;;;;;;;4.60;2.00;;;18.60;88.40;;;;;;5031717;28;20241;-61
2022/10/04 12:51:57;;;;;;;4.63;2.20;;;18.60;93.20;;;;;;5030422;28;20219;-60
2022/10/04 12:54:34;;;;;;;2.93;1.90;;;18.60;25.40;;;;;;5031659;28;20214;-60
2022/10/04 12:57:15;;;;;;;3.10;2.00;;;18.60;1.00;;;;;;5031480;28;20202;-62
2022/10/04 12:59:53;;;;;;;3.30;1.77;;;18.40;1.00;;;;;;5031598;28;20210;-60
2022/10/04 13:02:56;;;;;;;4.83;2.00;;;18.30;1.00;;;;;;5032349;28;20210;-62
2022/10/04 13:05:29;;;;;;;3.13;2.10;;;18.50;1.00;;;;;;5010457;28;20197;-63
2022/10/04 13:08:14;;;;;;;3.27;2.20;;;18.50;1.00;;;;;;5031787;28;20721;-63
2022/10/04 13:10:58;;;;;;;2.83;1.70;;;18.60;1.00;;;;;;5032329;28;20213;-63
2022/10/04 13:13:55;;;;;;;3.53;1.70;;;18.50;1.00;;;;;;5032243;28;20206;-61
2022/10/04 13:16:33;;;;;;;4.13;2.10;;;18.70;1.00;;;;;;5030138;28;20233;-59
2022/10/04 13:19:11;;;;;;;3.27;1.90;;;18.60;1.00;;;;;;5023360;28;20229;-57
2022/10/04 13:22:03;;;;;;;6.20;2.30;;;18.60;1.00;;;;;;5031697;28;20260;-61
2022/10/04 13:27:45;;;;;;;5.33;1.63;;;18.70;1.00;;;;;;5108629;27;21150;-59
2022/10/04 13:30:22;;;;;;;3.60;1.70;;;18.60;99.90;;;;;;5108923;28;20214;-61
2022/10/04 13:32:55;;;;;;;3.30;1.60;;;18.50;99.90;;;;;;5108568;28;20207;-57
2022/10/04 13:35:26;;;;;;;3.77;1.93;;;18.60;1.00;;;;;;5109163;28;20207;-57
2022/10/04 13:38:26;;;;;;;3.63;1.93;;;18.60;1.00;;;;;;5108396;28;20230;-62
2022/10/04 13:41:06;;;;;;;5.30;2.30;;;18.50;1.00;;;;;;5109019;28;20199;-60
2022/10/04 13:44:06;;;;;;;3.77;1.70;;;18.40;1.00;;;;;;5108498;28;20784;-59
2022/10/04 13:46:42;;;;;;;3.63;1.87;;;18.40;1.00;;;;;;5108474;28;20728;-60
2022/10/04 13:49:29;;;;;;;2.93;1.97;;;18.30;1.00;;;;;;5107964;28;20227;-58
2022/10/04 13:58:15;;;;;;;5.63;2.00;;;18.10;1.00;;;;;;5093720;28;20237;-59
2022/10/04 14:01:03;;;;;;;4.13;2.23;;;18.00;1.00;;;;;;5108477;28;20215;-59
2022/10/04 14:03:44;;;;;;;4.60;2.03;;;18.00;1.00;;;;;;5108924;28;20264;-59
2022/10/04 14:06:43;;;;;;;4.50;1.60;;;18.00;1.00;;;;;;5108110;28;20228;-58
2022/10/04 14:09:28;;;;;;;2.90;1.73;;;18.00;1.00;;;;;;5108548;28;20288;-58
2022/10/04 14:12:16;;;;;;;4.30;1.90;;;18.00;1.00;;;;;;5108114;28;20209;-59